createdAt,value
2024-01-19T00:00:45.490Z,20.72
2024-01-19T00:02:18.201Z,23.56
2024-01-19T00:03:49.624Z,22.72
2024-01-19T00:05:26.238Z,23.08
2024-01-19T00:07:02.433Z,23.30
2024-01-19T00:08:48.670Z,22.01
2024-01-19T00:10:30.269Z,23.83
2024-01-19T00:12:01.609Z,24.77
2024-01-19T00:13:52.881Z,24.06
2024-01-19T00:15:36.934Z,23.50
2024-01-19T00:17:27.982Z,24.06
2024-01-19T00:19:29.348Z,23.92
2024-01-19T00:21:26.092Z,24.78
2024-01-19T00:23:25.136Z,24.04
2024-01-19T00:25:04.361Z,23.36
2024-01-19T00:26:35.812Z,23.70
2024-01-19T00:28:07.686Z,24.16
2024-01-19T00:29:39.456Z,23.12
2024-01-19T00:31:11.148Z,24.14
2024-01-19T00:32:42.547Z,25.29
2024-01-19T00:34:14.028Z,25.39
2024-01-19T00:35:45.642Z,23.78
2024-01-19T00:37:17.220Z,27.44
2024-01-19T00:38:48.912Z,27.00
2024-01-19T00:41:04.389Z,27.61
2024-01-19T00:43:23.064Z,25.75
2024-01-19T00:44:56.878Z,26.92
2024-01-19T00:46:28.750Z,27.55
2024-01-19T00:48:05.823Z,28.60
2024-01-19T00:49:37.437Z,28.69
2024-01-19T00:51:09.419Z,29.67
2024-01-19T00:52:40.799Z,27.24
2024-01-19T00:54:12.789Z,29.94
2024-01-19T00:55:44.591Z,31.47
2024-01-19T00:57:16.229Z,30.79
2024-01-19T00:58:47.966Z,34.51
2024-01-19T01:00:19.438Z,33.10
2024-01-19T01:01:50.961Z,34.85
2024-01-19T01:03:22.594Z,34.48
2024-01-19T01:04:54.025Z,36.39
2024-01-19T01:06:25.307Z,37.75
2024-01-19T01:07:56.667Z,37.84
2024-01-19T01:09:27.999Z,35.57
2024-01-19T01:10:59.406Z,36.63
2024-01-19T01:12:31.035Z,34.46
2024-01-19T01:14:02.348Z,36.37
2024-01-19T01:15:33.676Z,35.22
2024-01-19T01:17:05.139Z,37.70
2024-01-19T01:18:36.876Z,36.19
2024-01-19T01:20:08.350Z,36.89
2024-01-19T01:21:39.558Z,35.26
2024-01-19T01:23:10.960Z,35.49
2024-01-19T01:24:42.311Z,35.97
2024-01-19T01:26:13.787Z,34.70
2024-01-19T01:27:45.306Z,35.58
2024-01-19T01:29:16.878Z,37.17
2024-01-19T01:30:53.394Z,32.73
2024-01-19T01:32:24.748Z,34.27
2024-01-19T01:33:56.018Z,31.83
2024-01-19T01:35:27.264Z,33.52
2024-01-19T01:36:59.855Z,33.70
2024-01-19T01:38:31.405Z,31.72
2024-01-19T01:40:02.985Z,29.51
2024-01-19T01:41:34.252Z,32.65
2024-01-19T01:43:05.489Z,32.87
2024-01-19T01:44:36.929Z,29.22
2024-01-19T01:46:08.391Z,30.56
2024-01-19T01:47:40.122Z,30.20
2024-01-19T01:49:11.659Z,32.56
2024-01-19T01:50:43.028Z,30.05
2024-01-19T01:52:14.369Z,28.68
2024-01-19T01:53:45.664Z,27.32
2024-01-19T01:55:17.250Z,29.48
2024-01-19T01:56:48.591Z,28.09
2024-01-19T01:58:19.883Z,29.72
2024-01-19T01:59:51.179Z,30.27
2024-01-19T02:01:22.452Z,30.16
2024-01-19T02:02:53.860Z,29.78
2024-01-19T02:04:25.100Z,28.68
2024-01-19T02:05:56.709Z,26.26
2024-01-19T02:07:28.174Z,27.18
2024-01-19T02:08:59.607Z,30.44
2024-01-19T02:10:30.940Z,29.35
2024-01-19T02:12:02.346Z,28.65
2024-01-19T02:13:33.603Z,29.10
2024-01-19T02:15:05.224Z,30.13
2024-01-19T02:16:36.475Z,27.62
2024-01-19T02:18:07.974Z,31.44
2024-01-19T02:19:39.380Z,30.43
2024-01-19T02:21:10.949Z,31.74
2024-01-19T02:22:42.164Z,31.19
2024-01-19T02:24:13.331Z,32.76
2024-01-19T02:25:44.651Z,31.41
2024-01-19T02:27:16.471Z,31.41
2024-01-19T02:28:47.840Z,33.59
2024-01-19T02:30:19.087Z,33.09
2024-01-19T02:31:50.647Z,33.06
2024-01-19T02:33:22.335Z,32.05
2024-01-19T02:34:53.792Z,30.11
2024-01-19T02:36:25.087Z,28.42
2024-01-19T02:37:56.420Z,30.78
2024-01-19T02:39:27.763Z,30.88
2024-01-19T02:40:59.022Z,32.56
2024-01-19T02:42:30.440Z,29.71
2024-01-19T02:44:01.848Z,29.45
2024-01-19T02:45:38.591Z,29.74
2024-01-19T02:47:10.262Z,29.50
2024-01-19T02:48:41.615Z,27.52
2024-01-19T02:50:13.353Z,26.47
2024-01-19T02:51:44.564Z,27.00
2024-01-19T02:53:16.294Z,26.29
2024-01-19T02:54:47.698Z,25.35
2024-01-19T02:56:18.870Z,26.95
2024-01-19T02:57:50.153Z,29.42
2024-01-19T02:59:21.502Z,23.54
2024-01-19T03:00:52.868Z,27.97
2024-01-19T03:02:24.034Z,25.08
2024-01-19T03:03:55.247Z,24.32
2024-01-19T03:05:26.452Z,24.91
2024-01-19T03:06:57.747Z,27.15
2024-01-19T03:08:29.108Z,23.86
2024-01-19T03:10:00.808Z,22.30
2024-01-19T03:11:32.097Z,23.10
2024-01-19T03:13:03.447Z,24.77
2024-01-19T03:14:34.912Z,24.44
2024-01-19T03:16:06.737Z,26.53
2024-01-19T03:17:38.285Z,26.03
2024-01-19T03:19:09.994Z,27.04
2024-01-19T03:20:41.267Z,24.07
2024-01-19T03:22:13.259Z,26.86
2024-01-19T03:23:44.431Z,25.05
2024-01-19T03:25:15.757Z,23.01
2024-01-19T03:26:46.996Z,29.66
2024-01-19T03:28:18.260Z,28.57
2024-01-19T03:29:49.900Z,27.82
2024-01-19T03:31:21.258Z,25.70
2024-01-19T03:32:54.840Z,20.34
2024-01-19T03:34:26.293Z,24.13
2024-01-19T03:35:59.116Z,29.54
2024-01-19T03:37:31.876Z,28.57
2024-01-19T03:39:03.046Z,33.60
2024-01-19T03:40:39.567Z,34.35
2024-01-19T03:42:12.128Z,34.88
2024-01-19T03:43:43.347Z,33.24
2024-01-19T03:45:14.541Z,30.87
2024-01-19T03:46:46.018Z,31.54
2024-01-19T03:48:17.573Z,33.52
2024-01-19T03:49:48.974Z,35.13
2024-01-19T03:51:20.124Z,35.29
2024-01-19T03:52:51.350Z,34.78
2024-01-19T03:54:22.549Z,36.15
2024-01-19T03:55:53.723Z,36.40
2024-01-19T03:57:24.979Z,36.21
2024-01-19T03:58:56.674Z,37.30
2024-01-19T04:00:27.753Z,38.52
2024-01-19T04:01:59.183Z,35.80
2024-01-19T04:03:32.037Z,36.83
2024-01-19T04:05:05.178Z,38.26
2024-01-19T04:06:36.480Z,37.12
2024-01-19T04:08:07.968Z,37.40
2024-01-19T04:09:39.065Z,37.75
2024-01-19T04:11:10.339Z,40.12
2024-01-19T04:12:41.707Z,37.48
2024-01-19T04:14:12.832Z,38.25
2024-01-19T04:15:44.154Z,36.81
2024-01-19T04:17:15.527Z,35.12
2024-01-19T04:18:46.737Z,38.99
2024-01-19T04:20:18.151Z,40.16
2024-01-19T04:21:49.420Z,39.35
2024-01-19T04:23:20.935Z,38.76
2024-01-19T04:24:52.862Z,41.30
2024-01-19T04:26:29.006Z,40.82
2024-01-19T04:28:00.357Z,36.40
2024-01-19T04:29:31.841Z,40.97
2024-01-19T04:31:03.148Z,41.53
2024-01-19T04:32:54.775Z,41.17
2024-01-19T04:34:26.161Z,42.26
2024-01-19T04:35:57.381Z,43.15
2024-01-19T04:37:28.703Z,38.52
2024-01-19T04:39:00.523Z,45.82
2024-01-19T04:40:32.165Z,45.84
2024-01-19T04:42:03.504Z,36.32
2024-01-19T04:43:34.898Z,35.82
2024-01-19T04:45:06.417Z,33.94
2024-01-19T04:46:42.809Z,39.38
2024-01-19T04:48:14.152Z,44.35
2024-01-19T04:49:45.910Z,44.29
2024-01-19T04:51:56.764Z,40.27
2024-01-19T04:53:28.625Z,36.06
2024-01-19T04:55:00.235Z,45.73
2024-01-19T04:56:31.540Z,40.73
2024-01-19T04:58:18.089Z,42.90
2024-01-19T04:59:49.288Z,33.99
2024-01-19T05:01:20.540Z,44.85
2024-01-19T05:03:11.912Z,36.18
2024-01-19T05:04:43.605Z,38.30
2024-01-19T05:06:15.263Z,42.68
2024-01-19T05:07:46.680Z,43.36
2024-01-19T05:09:17.867Z,35.50
2024-01-19T05:10:49.190Z,32.40
2024-01-19T05:12:20.609Z,36.71
2024-01-19T05:13:52.005Z,35.64
2024-01-19T05:15:23.798Z,34.65
2024-01-19T05:16:55.264Z,36.08
2024-01-19T05:18:26.905Z,34.51
2024-01-19T05:20:08.572Z,35.31
2024-01-19T05:21:39.935Z,33.04
2024-01-19T05:23:45.960Z,33.55
2024-01-19T05:25:17.359Z,39.12
2024-01-19T05:26:48.989Z,39.81
2024-01-19T05:28:30.339Z,39.41
2024-01-19T05:30:01.818Z,41.44
2024-01-19T05:31:33.042Z,39.38
2024-01-19T05:33:14.500Z,34.75
2024-01-19T05:34:46.614Z,40.05
2024-01-19T05:36:18.045Z,42.67
2024-01-19T05:37:50.197Z,39.10
2024-01-19T05:39:21.670Z,43.24
2024-01-19T05:40:58.126Z,40.82
2024-01-19T05:42:29.312Z,42.72
2024-01-19T05:44:01.205Z,44.16
2024-01-19T05:45:47.696Z,40.21
2024-01-19T05:47:18.967Z,45.89
2024-01-19T05:48:50.704Z,37.95
2024-01-19T05:50:34.705Z,40.79
2024-01-19T05:52:07.563Z,46.35
2024-01-19T05:53:38.887Z,45.07
2024-01-19T05:56:18.281Z,46.27
2024-01-19T05:57:49.675Z,39.37
2024-01-19T05:59:21.539Z,38.71
2024-01-19T06:01:53.370Z,40.77
2024-01-19T06:03:25.284Z,37.54
2024-01-19T06:04:57.037Z,45.45
2024-01-19T06:06:28.269Z,41.38
2024-01-19T06:07:59.864Z,40.34
2024-01-19T06:09:31.163Z,33.43
2024-01-19T06:11:02.316Z,32.08
2024-01-19T06:12:33.559Z,36.98
2024-01-19T06:14:04.704Z,35.89
2024-01-19T06:15:35.845Z,41.64
2024-01-19T06:17:13.947Z,41.03
2024-01-19T06:18:45.685Z,40.50
2024-01-19T06:20:17.054Z,43.88
2024-01-19T06:21:48.857Z,44.52
2024-01-19T06:23:20.330Z,46.51
2024-01-19T06:24:51.825Z,43.17
2024-01-19T06:26:23.221Z,45.72
2024-01-19T06:27:54.654Z,40.99
2024-01-19T06:29:26.016Z,39.16
2024-01-19T06:31:02.386Z,45.47
2024-01-19T06:32:49.722Z,47.22
2024-01-19T06:34:21.090Z,50.20
2024-01-19T06:35:52.384Z,43.56
2024-01-19T06:37:23.692Z,43.02
2024-01-19T06:39:00.538Z,41.84
2024-01-19T06:40:31.764Z,35.70
2024-01-19T06:42:03.146Z,42.23
2024-01-19T06:43:34.889Z,42.39
2024-01-19T06:45:06.174Z,38.87
2024-01-19T06:46:37.630Z,43.32
2024-01-19T06:48:24.068Z,46.06
2024-01-19T06:49:55.470Z,42.66
2024-01-19T06:51:26.665Z,43.70
2024-01-19T06:53:00.367Z,42.48
2024-01-19T06:54:32.002Z,41.90
2024-01-19T06:56:09.192Z,49.54
2024-01-19T06:57:41.396Z,47.08
2024-01-19T06:59:12.759Z,48.42
2024-01-19T07:01:09.205Z,36.55
2024-01-19T07:02:40.491Z,47.47
2024-01-19T07:04:11.697Z,52.35
2024-01-19T07:05:58.666Z,47.23
2024-01-19T07:09:52.064Z,45.62
2024-01-19T07:11:23.373Z,52.20
2024-01-19T07:12:54.679Z,53.63
2024-01-19T07:15:00.370Z,50.25
2024-01-19T07:16:31.597Z,53.23
2024-01-19T07:18:03.324Z,50.76
2024-01-19T07:19:34.585Z,54.16
2024-01-19T07:21:06.224Z,52.89
2024-01-19T07:22:37.881Z,45.71
2024-01-19T07:24:09.253Z,49.16
2024-01-19T07:25:40.466Z,49.30
2024-01-19T07:27:11.941Z,52.06
2024-01-19T07:28:43.189Z,52.16
2024-01-19T07:30:14.426Z,54.26
2024-01-19T07:31:45.722Z,54.13
2024-01-19T07:33:25.333Z,51.41
2024-01-19T07:35:01.055Z,53.57
2024-01-19T07:36:32.477Z,53.29
2024-01-19T07:38:03.719Z,56.17
2024-01-19T07:39:45.100Z,50.40
2024-01-19T07:41:21.333Z,49.38
2024-01-19T07:42:52.683Z,55.41
2024-01-19T07:44:29.061Z,51.90
2024-01-19T07:46:00.351Z,52.55
2024-01-19T07:47:31.592Z,51.86
2024-01-19T07:49:12.874Z,59.33
2024-01-19T07:50:49.172Z,56.02
2024-01-19T07:52:20.467Z,53.31
2024-01-19T07:53:51.924Z,54.59
2024-01-19T07:55:23.282Z,55.95
2024-01-19T07:56:54.756Z,53.56
2024-01-19T07:58:25.959Z,59.50
2024-01-19T07:59:57.235Z,57.20
2024-01-19T08:01:28.379Z,55.58
2024-01-19T08:02:59.762Z,53.96
2024-01-19T08:04:31.050Z,50.13
2024-01-19T08:06:02.457Z,52.86
2024-01-19T08:07:33.645Z,55.31
2024-01-19T08:09:20.140Z,38.56
2024-01-19T08:11:01.948Z,46.97
2024-01-19T08:12:33.501Z,46.90
2024-01-19T08:14:05.160Z,52.74
2024-01-19T08:15:37.699Z,51.98
2024-01-19T08:17:09.396Z,54.58
2024-01-19T08:18:51.033Z,52.57
2024-01-19T08:20:22.600Z,52.46
2024-01-19T08:21:54.031Z,56.08
2024-01-19T08:23:25.455Z,56.51
2024-01-19T08:24:56.945Z,53.15
2024-01-19T08:26:29.058Z,53.82
2024-01-19T08:28:00.278Z,54.76
2024-01-19T08:29:31.485Z,55.02
2024-01-19T08:31:13.137Z,51.11
2024-01-19T08:32:56.985Z,53.17
2024-01-19T08:34:28.286Z,50.52
2024-01-19T08:35:59.780Z,48.95
2024-01-19T08:37:31.250Z,53.94
2024-01-19T08:39:02.586Z,50.41
2024-01-19T08:42:25.433Z,50.40
2024-01-19T08:44:02.196Z,50.55
2024-01-19T08:45:39.171Z,52.84
2024-01-19T08:47:11.051Z,47.51
2024-01-19T08:48:57.772Z,51.51
2024-01-19T08:50:34.299Z,52.42
2024-01-19T08:52:05.624Z,54.75
2024-01-19T08:53:36.969Z,52.69
2024-01-19T08:55:31.812Z,48.72
2024-01-19T08:57:05.882Z,49.39
2024-01-19T08:58:37.370Z,51.00
2024-01-19T09:00:08.799Z,54.22
2024-01-19T09:01:40.147Z,51.32
2024-01-19T09:03:11.625Z,53.22
2024-01-19T09:04:43.038Z,53.10
2024-01-19T09:06:15.668Z,52.58
2024-01-19T09:07:47.282Z,52.66
2024-01-19T09:09:18.923Z,50.21
2024-01-19T09:10:50.089Z,51.33
2024-01-19T09:12:21.386Z,54.73
2024-01-19T09:13:54.242Z,49.82
2024-01-19T09:15:25.484Z,45.31
2024-01-19T09:16:56.821Z,51.02
2024-01-19T09:18:28.255Z,38.30
2024-01-19T09:20:04.639Z,41.16
2024-01-19T09:21:36.245Z,43.91
2024-01-19T09:23:07.600Z,43.28
2024-01-19T09:24:38.787Z,46.00
2024-01-19T09:26:10.074Z,47.84
2024-01-19T09:27:41.350Z,41.71
2024-01-19T09:29:12.751Z,40.78
2024-01-19T09:30:44.012Z,44.29
2024-01-19T09:32:25.221Z,46.59
2024-01-19T09:33:56.778Z,48.84
2024-01-19T09:35:28.726Z,44.95
2024-01-19T09:37:00.271Z,42.68
2024-01-19T09:38:31.694Z,48.10
2024-01-19T09:40:02.955Z,37.14
2024-01-19T09:41:34.336Z,37.67
2024-01-19T09:43:05.553Z,41.36
2024-01-19T09:44:37.391Z,43.40
2024-01-19T09:46:10.677Z,43.16
2024-01-19T09:47:42.246Z,39.22
2024-01-19T09:49:13.750Z,42.44
2024-01-19T09:50:45.422Z,41.95
2024-01-19T09:52:17.013Z,39.33
2024-01-19T09:54:13.635Z,38.60
2024-01-19T09:55:50.090Z,42.19
2024-01-19T09:57:26.608Z,44.66
2024-01-19T09:58:57.905Z,45.65
2024-01-19T10:01:13.100Z,45.77
2024-01-19T10:03:16.617Z,41.94
2024-01-19T10:05:18.384Z,44.19
2024-01-19T10:07:06.180Z,36.33
2024-01-19T10:08:37.761Z,42.31
2024-01-19T10:10:32.696Z,44.44
2024-01-19T10:12:24.473Z,41.53
2024-01-19T10:14:16.665Z,36.11
2024-01-19T10:15:48.179Z,28.70
2024-01-19T10:17:58.430Z,43.12
2024-01-19T10:20:12.476Z,44.15
2024-01-19T10:21:44.141Z,44.86
2024-01-19T10:23:55.304Z,43.90
2024-01-19T10:25:34.404Z,48.14
2024-01-19T10:27:11.137Z,46.60
2024-01-19T10:28:57.621Z,46.12
2024-01-19T10:30:39.032Z,45.41
2024-01-19T10:32:10.882Z,47.56
2024-01-19T10:33:47.411Z,46.58
2024-01-19T10:36:00.791Z,44.21
2024-01-19T10:38:05.000Z,41.58
2024-01-19T10:39:36.548Z,37.32
2024-01-19T10:41:07.935Z,39.63
2024-01-19T10:42:39.413Z,48.74
2024-01-19T10:44:10.713Z,46.62
2024-01-19T10:45:41.890Z,43.55
2024-01-19T10:47:13.175Z,38.30
2024-01-19T10:48:49.717Z,43.18
2024-01-19T10:50:21.046Z,43.58
2024-01-19T10:51:52.581Z,43.30
2024-01-19T10:53:24.038Z,38.39
2024-01-19T10:55:00.490Z,44.46
2024-01-19T10:56:32.054Z,35.49
2024-01-19T10:58:05.544Z,42.70
2024-01-19T10:59:38.680Z,44.03
2024-01-19T11:01:10.094Z,44.92
2024-01-19T11:02:41.696Z,46.07
2024-01-19T11:04:13.871Z,49.88
2024-01-19T11:05:45.654Z,44.30
2024-01-19T11:07:17.387Z,40.45
2024-01-19T11:08:59.334Z,41.87
2024-01-19T11:10:31.634Z,38.76
2024-01-19T11:12:03.487Z,38.06
2024-01-19T11:13:35.182Z,46.87
2024-01-19T11:15:07.166Z,44.13
2024-01-19T11:16:40.288Z,32.32
2024-01-19T11:18:12.158Z,35.37
2024-01-19T11:19:44.923Z,37.99
2024-01-19T11:22:03.633Z,41.44
2024-01-19T11:23:40.373Z,39.03
2024-01-19T11:25:12.522Z,42.19
2024-01-19T11:26:44.029Z,44.55
2024-01-19T11:28:15.305Z,43.94
2024-01-19T11:29:51.809Z,42.67
2024-01-19T11:31:27.989Z,44.96
2024-01-19T11:33:04.575Z,42.19
2024-01-19T11:34:36.244Z,42.24
2024-01-19T11:36:08.084Z,46.39
2024-01-19T11:37:39.668Z,41.53
2024-01-19T11:39:11.244Z,38.71
2024-01-19T11:40:42.459Z,39.86
2024-01-19T11:42:18.995Z,42.41
2024-01-19T11:43:50.500Z,33.77
2024-01-19T11:45:22.060Z,37.56
2024-01-19T11:46:54.862Z,36.74
2024-01-19T11:48:27.467Z,36.56
2024-01-19T11:49:59.261Z,33.30
2024-01-19T11:51:31.059Z,34.03
2024-01-19T11:53:07.755Z,34.31
2024-01-19T11:54:39.163Z,39.88
2024-01-19T11:56:10.530Z,35.98
2024-01-19T11:57:42.301Z,37.12
2024-01-19T11:59:24.725Z,36.84
2024-01-19T12:01:11.733Z,36.15
2024-01-19T12:02:43.818Z,34.78
2024-01-19T12:07:03.869Z,25.27
2024-01-19T12:08:35.557Z,32.77
2024-01-19T12:10:07.538Z,34.16
2024-01-19T12:11:39.829Z,30.26
2024-01-19T12:13:31.528Z,33.06
2024-01-19T12:15:18.739Z,33.16
2024-01-19T12:16:55.633Z,32.85
2024-01-19T12:18:31.933Z,35.78
2024-01-19T12:20:27.954Z,34.88
2024-01-19T12:22:28.753Z,32.51
2024-01-19T12:24:13.565Z,34.18
2024-01-19T12:25:58.206Z,32.66
2024-01-19T12:27:31.363Z,33.38
2024-01-19T12:29:03.813Z,35.12
2024-01-19T12:31:07.140Z,33.85
2024-01-19T12:32:39.344Z,38.09
2024-01-19T12:34:12.034Z,35.94
2024-01-19T12:35:43.744Z,35.52
2024-01-19T12:37:15.052Z,36.38
2024-01-19T12:38:46.636Z,34.94
2024-01-19T12:40:18.446Z,31.20
2024-01-19T12:41:50.083Z,33.30
2024-01-19T12:43:21.854Z,34.49
2024-01-19T12:44:53.208Z,31.67
2024-01-19T12:46:24.862Z,34.96
2024-01-19T12:47:56.323Z,32.77
2024-01-19T12:49:27.740Z,31.51
2024-01-19T12:50:59.550Z,29.91
2024-01-19T12:52:31.245Z,27.97
2024-01-19T12:54:02.752Z,27.60
2024-01-19T12:55:34.410Z,30.05
2024-01-19T12:57:05.754Z,28.38
2024-01-19T12:58:37.366Z,29.36
2024-01-19T13:00:08.800Z,26.08
2024-01-19T13:01:40.173Z,30.60
2024-01-19T13:03:16.779Z,33.65
2024-01-19T13:05:23.165Z,29.35
2024-01-19T13:06:54.550Z,28.45
2024-01-19T13:08:28.497Z,28.76
2024-01-19T13:10:00.182Z,27.68
2024-01-19T13:11:31.860Z,28.61
2024-01-19T13:13:04.031Z,25.22
2024-01-19T13:14:35.468Z,30.93
2024-01-19T13:16:12.020Z,29.58
2024-01-19T13:17:43.660Z,28.93
2024-01-19T13:19:21.315Z,30.40
2024-01-19T13:20:52.666Z,30.13
2024-01-19T13:22:24.904Z,29.69
2024-01-19T13:23:56.432Z,30.06
2024-01-19T13:25:33.065Z,30.41
2024-01-19T13:27:04.447Z,27.72
2024-01-19T13:28:35.911Z,30.85
2024-01-19T13:30:07.645Z,30.90
2024-01-19T13:31:40.525Z,27.00
2024-01-19T13:33:13.839Z,26.70
2024-01-19T13:34:45.923Z,28.78
2024-01-19T13:36:17.321Z,31.92
2024-01-19T13:37:49.404Z,31.59
2024-01-19T13:39:20.804Z,23.85
2024-01-19T13:41:12.064Z,26.54
2024-01-19T13:42:43.337Z,27.48
2024-01-19T13:44:24.610Z,27.64
2024-01-19T13:45:55.948Z,25.95
2024-01-19T13:47:27.460Z,27.93
2024-01-19T13:48:58.979Z,30.63
2024-01-19T13:50:30.440Z,29.45
2024-01-19T13:52:02.171Z,30.41
2024-01-19T13:53:33.828Z,28.80
2024-01-19T13:55:15.405Z,29.19
2024-01-19T13:56:46.787Z,26.37
2024-01-19T13:58:19.191Z,26.17
2024-01-19T13:59:50.998Z,22.65
2024-01-19T14:01:22.655Z,23.52
2024-01-19T14:02:59.257Z,27.58
2024-01-19T14:04:32.264Z,28.33
2024-01-19T14:06:03.919Z,27.58
2024-01-19T14:07:35.350Z,26.81
2024-01-19T14:09:06.795Z,28.51
2024-01-19T14:10:38.308Z,29.23
2024-01-19T14:12:09.773Z,30.23
2024-01-19T14:13:41.681Z,32.72
2024-01-19T14:15:15.509Z,29.57
2024-01-19T14:16:52.385Z,30.01
2024-01-19T14:18:24.044Z,31.46
2024-01-19T14:19:55.926Z,29.67
2024-01-19T14:21:27.962Z,34.39
2024-01-19T14:22:59.972Z,31.12
2024-01-19T14:24:32.069Z,31.45
2024-01-19T14:26:04.825Z,26.40
2024-01-19T14:27:36.701Z,31.62
2024-01-19T14:29:13.523Z,28.57
2024-01-19T14:30:50.577Z,33.40
2024-01-19T14:32:21.907Z,35.60
2024-01-19T14:33:53.529Z,35.19
2024-01-19T14:35:25.416Z,35.13
2024-01-19T14:36:57.171Z,34.88
2024-01-19T14:38:28.783Z,32.41
2024-01-19T14:40:00.812Z,32.19
2024-01-19T14:41:42.282Z,32.34
2024-01-19T14:43:19.729Z,33.79
2024-01-19T14:44:51.873Z,32.78
2024-01-19T14:46:56.618Z,30.76
2024-01-19T14:48:28.983Z,31.11
2024-01-19T14:50:00.763Z,29.16
2024-01-19T14:51:55.693Z,30.46
2024-01-19T14:53:28.114Z,28.82
2024-01-19T14:54:59.996Z,30.99
2024-01-19T14:56:31.370Z,31.93
2024-01-19T14:58:02.906Z,30.54
2024-01-19T14:59:34.366Z,32.98
2024-01-19T15:01:06.185Z,31.96
2024-01-19T15:02:37.799Z,31.80
2024-01-19T15:04:09.154Z,33.31
2024-01-19T15:05:40.655Z,32.53
2024-01-19T15:07:21.847Z,31.92
2024-01-19T15:08:54.324Z,33.15
2024-01-19T15:10:35.576Z,34.97
2024-01-19T15:12:06.937Z,34.69
2024-01-19T15:13:43.161Z,34.91
2024-01-19T15:15:15.739Z,34.75
2024-01-19T15:16:57.366Z,34.91
2024-01-19T15:18:33.884Z,34.48
2024-01-19T15:20:05.932Z,35.41
2024-01-19T15:22:09.490Z,34.28
2024-01-19T15:23:41.748Z,33.35
2024-01-19T15:25:14.616Z,35.89
2024-01-19T15:27:06.030Z,34.50
2024-01-19T15:28:42.800Z,34.08
2024-01-19T15:30:33.115Z,34.11
2024-01-19T15:32:08.279Z,35.82
2024-01-19T15:35:36.194Z,37.71
2024-01-19T15:37:12.706Z,36.03
2024-01-19T15:39:30.759Z,37.10
2024-01-19T15:41:02.480Z,38.26
2024-01-19T15:42:46.633Z,37.72
2024-01-19T15:44:18.240Z,36.63
2024-01-19T15:46:04.683Z,38.35
2024-01-19T15:48:04.662Z,36.77
2024-01-19T15:49:36.383Z,38.95
2024-01-19T15:51:08.456Z,39.24
2024-01-19T15:52:40.839Z,41.12
2024-01-19T15:56:43.115Z,40.78
2024-01-19T15:58:14.767Z,36.17
2024-01-19T15:59:46.113Z,42.01
2024-01-19T16:01:17.585Z,40.93
2024-01-19T16:02:48.961Z,41.74
2024-01-19T16:04:20.727Z,41.79
2024-01-19T16:05:57.198Z,42.86
2024-01-19T16:07:28.666Z,40.23
2024-01-19T16:09:00.562Z,42.26
2024-01-19T16:10:31.962Z,42.39
2024-01-19T16:12:08.609Z,39.91
2024-01-19T16:13:40.152Z,46.06
2024-01-19T16:15:26.916Z,43.42
2024-01-19T16:16:58.562Z,47.19
2024-01-19T16:18:30.042Z,44.60
2024-01-19T16:20:01.613Z,44.24
2024-01-19T16:21:33.104Z,45.78
2024-01-19T16:23:04.490Z,43.76
2024-01-19T16:24:35.994Z,45.01
2024-01-19T16:26:07.256Z,45.23
2024-01-19T16:27:38.512Z,45.21
2024-01-19T16:29:20.275Z,44.10
2024-01-19T16:30:52.190Z,44.58
2024-01-19T16:32:23.563Z,46.57
2024-01-19T16:33:55.089Z,47.25
2024-01-19T16:35:30.812Z,45.75
2024-01-19T16:37:11.310Z,46.62
2024-01-19T16:38:42.789Z,49.70
2024-01-19T16:40:24.091Z,44.87
2024-01-19T16:41:55.782Z,45.66
2024-01-19T16:43:27.045Z,44.48
2024-01-19T16:44:58.791Z,49.82
2024-01-19T16:46:30.632Z,47.04
2024-01-19T16:48:02.474Z,45.62
2024-01-19T16:49:33.855Z,43.94
2024-01-19T16:51:05.616Z,47.25
2024-01-19T16:52:36.984Z,46.53
2024-01-19T16:54:08.128Z,45.11
2024-01-19T16:55:39.905Z,45.10
2024-01-19T16:57:11.921Z,43.28
2024-01-19T16:58:43.643Z,46.77
2024-01-19T17:00:15.065Z,45.24
2024-01-19T17:01:46.527Z,41.03
2024-01-19T17:03:18.212Z,44.96
2024-01-19T17:04:50.186Z,47.19
2024-01-19T17:06:21.937Z,44.69
2024-01-19T17:07:53.781Z,42.43
2024-01-19T17:09:25.027Z,44.28
2024-01-19T17:10:56.385Z,45.65
2024-01-19T17:12:28.054Z,44.40
2024-01-19T17:13:59.456Z,47.18
2024-01-19T17:15:31.690Z,40.71
2024-01-19T17:17:02.895Z,43.25
2024-01-19T17:18:34.748Z,43.56
2024-01-19T17:20:06.607Z,46.30
2024-01-19T17:21:38.796Z,43.29
2024-01-19T17:23:33.793Z,45.34
2024-01-19T17:25:10.657Z,48.42
2024-01-19T17:26:42.819Z,44.53
2024-01-19T17:28:25.599Z,42.70
2024-01-19T17:29:57.206Z,44.76
2024-01-19T17:31:30.061Z,40.61
2024-01-19T17:33:02.284Z,39.90
2024-01-19T17:34:33.883Z,40.78
2024-01-19T17:36:05.565Z,42.18
2024-01-19T17:37:37.232Z,43.23
2024-01-19T17:39:08.692Z,45.69
2024-01-19T17:40:40.689Z,43.85
2024-01-19T17:42:15.866Z,47.50
2024-01-19T17:43:48.270Z,49.60
2024-01-19T17:45:21.998Z,50.43
2024-01-19T17:46:54.556Z,47.22
2024-01-19T17:48:26.283Z,48.42
2024-01-19T17:49:57.849Z,45.74
2024-01-19T17:51:29.747Z,39.94
2024-01-19T17:53:01.948Z,42.07
2024-01-19T17:54:33.419Z,42.35
2024-01-19T17:56:05.283Z,42.33
2024-01-19T17:57:36.789Z,46.56
2024-01-19T17:59:08.399Z,41.12
2024-01-19T18:00:40.206Z,39.00
2024-01-19T18:02:11.997Z,42.31
2024-01-19T18:03:44.422Z,41.72
2024-01-19T18:05:16.869Z,40.90
2024-01-19T18:06:49.351Z,41.52
2024-01-19T18:08:20.775Z,42.46
2024-01-19T18:09:52.216Z,43.26
2024-01-19T18:11:24.093Z,41.35
2024-01-19T18:12:55.589Z,40.58
2024-01-19T18:14:27.924Z,41.58
2024-01-19T18:15:59.235Z,50.91
2024-01-19T18:17:31.852Z,47.49
2024-01-19T18:19:04.441Z,45.68
2024-01-19T18:20:37.044Z,45.28
2024-01-19T18:22:08.749Z,42.62
2024-01-19T18:23:40.323Z,41.27
2024-01-19T18:25:12.826Z,42.56
2024-01-19T18:26:46.996Z,42.01
2024-01-19T18:28:20.949Z,40.63
2024-01-19T18:31:45.092Z,39.60
2024-01-19T18:33:16.798Z,39.64
2024-01-19T18:34:48.623Z,41.94
2024-01-19T18:36:20.458Z,40.79
2024-01-19T18:37:52.348Z,43.65
2024-01-19T18:39:27.970Z,44.56
2024-01-19T18:40:59.911Z,43.50
2024-01-19T18:42:31.204Z,43.79
2024-01-19T18:44:02.529Z,42.46
2024-01-19T18:45:34.122Z,43.69
2024-01-19T18:47:05.501Z,45.84
2024-01-19T18:48:37.056Z,40.48
2024-01-19T18:50:08.577Z,43.95
2024-01-19T18:51:40.143Z,40.78
2024-01-19T18:53:11.473Z,41.32
2024-01-19T18:54:43.507Z,45.34
2024-01-19T18:56:15.400Z,44.81
2024-01-19T18:57:47.432Z,45.46
2024-01-19T18:59:23.618Z,42.61
2024-01-19T19:00:55.062Z,41.20
2024-01-19T19:02:26.441Z,45.55
2024-01-19T19:03:57.849Z,41.96
2024-01-19T19:05:29.828Z,46.09
2024-01-19T19:07:02.199Z,49.88
2024-01-19T19:08:33.908Z,48.99
2024-01-19T19:10:05.677Z,55.25
2024-01-19T19:11:37.271Z,51.76
2024-01-19T19:13:09.118Z,47.53
2024-01-19T19:14:41.937Z,43.95
2024-01-19T19:16:22.184Z,45.10
2024-01-19T19:18:02.526Z,41.57
2024-01-19T19:19:33.954Z,40.02
2024-01-19T19:21:05.224Z,38.57
2024-01-19T19:22:36.883Z,41.50
2024-01-19T19:24:08.407Z,42.79
2024-01-19T19:25:50.019Z,41.19
2024-01-19T19:27:22.429Z,42.81
2024-01-19T19:28:54.067Z,40.28
2024-01-19T19:30:25.548Z,42.97
2024-01-19T19:31:57.034Z,40.24
2024-01-19T19:33:28.790Z,39.81
2024-01-19T19:35:00.505Z,46.01
2024-01-19T19:36:31.934Z,42.49
2024-01-19T19:38:03.267Z,42.65
2024-01-19T19:39:34.741Z,40.62
2024-01-19T19:41:11.076Z,40.77
2024-01-19T19:42:47.544Z,44.85
2024-01-19T19:44:19.067Z,43.58
2024-01-19T19:45:52.956Z,42.70
2024-01-19T19:47:24.790Z,39.75
2024-01-19T19:48:58.144Z,38.04
2024-01-19T19:50:29.646Z,42.05
2024-01-19T19:52:19.050Z,44.90
2024-01-19T19:53:55.907Z,41.93
2024-01-19T19:55:27.323Z,39.28
2024-01-19T19:56:58.444Z,45.10
2024-01-19T19:58:29.601Z,42.91
2024-01-19T20:00:01.222Z,41.01
2024-01-19T20:01:33.142Z,43.97
2024-01-19T20:03:04.742Z,42.82
2024-01-19T20:04:37.780Z,43.98
2024-01-19T20:06:09.859Z,37.66
2024-01-19T20:07:41.369Z,39.93
2024-01-19T20:09:12.769Z,42.04
2024-01-19T20:10:44.440Z,46.65
2024-01-19T20:12:15.769Z,46.32
2024-01-19T20:13:47.205Z,42.37
2024-01-19T20:15:18.806Z,38.08
2024-01-19T20:16:50.722Z,41.71
2024-01-19T20:18:22.163Z,33.22
2024-01-19T20:19:53.634Z,41.77
2024-01-19T20:21:24.913Z,43.60
2024-01-19T20:22:56.685Z,41.69
2024-01-19T20:24:28.585Z,40.08
2024-01-19T20:26:19.694Z,39.26
2024-01-19T20:27:51.505Z,40.48
2024-01-19T20:29:28.041Z,34.42
2024-01-19T20:31:27.955Z,40.76